ORBI/SDA METAR and TAF weather

Enter ICAO airport designator
Station Type Date Time Source
ORBI METAR 2019/02/17 16:00 UTC NOAA

ORBI 171600Z 30006KT 9999 FEW028 14/06 Q1019 NOSIG


Station Type Date Time Source
ORBI Decoded METAR 2019/02/17 16:00 UTC NOAA

Station name not available
Feb 17, 2019 - 11:00 AM EST / 2019.02.17 1600 UTC
Wind: from the WNW (300 degrees) at 7 MPH (6 KT):0
Visibility: greater than 7 mile(s):0
Sky conditions: mostly clear
Temperature: 57 F (14 C)
Dew Point: 42 F (6 C)
Relative Humidity: 58%
Pressure (altimeter): 30.09 in. Hg (1019 hPa)
ob: ORBI 171600Z 30006KT 9999 FEW028 14/06 Q1019 NOSIG
cycle: 16

Station Type Date Time Source
ORBI TAF 2019/02/17 12:42 UTC NOAA

TAF TAF ORBI 171000Z 1712/1812 28008KT 8000 SCT040


Example: see airport list